createdAt,value
2018-12-11T00:02:19.002Z,329.47
2018-12-11T00:04:47.367Z,1228.20
2018-12-11T00:07:15.967Z,1155.93
2018-12-11T00:09:44.577Z,351.10
2018-12-11T00:12:12.679Z,237.37
2018-12-11T00:14:41.032Z,689.10
2018-12-11T00:17:09.540Z,1735.20
2018-12-11T00:19:38.018Z,146.03
2018-12-11T00:22:06.713Z,604.77
2018-12-11T00:24:35.024Z,126.67
2018-12-11T00:27:03.209Z,726.43
2018-12-11T00:29:31.298Z,284.67
2018-12-11T00:32:00.186Z,273.03
2018-12-11T00:34:29.315Z,374.50
2018-12-11T00:36:57.840Z,1181.50
2018-12-11T00:39:26.405Z,179.23
2018-12-11T00:41:54.608Z,313.33
2018-12-11T00:44:22.613Z,1449.60
2018-12-11T00:46:51.068Z,158.13
2018-12-11T00:49:19.696Z,1503.30
2018-12-11T00:51:47.929Z,655.23
2018-12-11T00:54:15.919Z,241.93
2018-12-11T00:56:43.899Z,447.73
2018-12-11T00:59:11.993Z,138.00
2018-12-11T01:01:39.911Z,1149.03
2018-12-11T01:04:07.833Z,407.97
2018-12-11T01:06:35.747Z,128.53
2018-12-11T01:09:04.832Z,140.67
2018-12-11T01:11:32.734Z,822.53
2018-12-11T01:14:00.628Z,629.97
2018-12-11T01:16:28.548Z,1109.13
2018-12-11T01:18:56.442Z,327.10
2018-12-11T01:21:24.900Z,1357.20
2018-12-11T01:23:52.796Z,1760.03
2018-12-11T01:26:20.710Z,324.33
2018-12-11T01:28:48.604Z,1526.50
2018-12-11T01:31:16.580Z,371.30
2018-12-11T01:33:44.496Z,494.10
2018-12-11T01:36:12.411Z,376.17
2018-12-11T01:38:40.327Z,882.63
2018-12-11T01:41:08.248Z,357.70
2018-12-11T01:43:36.212Z,1799.53
2018-12-11T01:46:04.152Z,114.63
2018-12-11T01:48:32.158Z,933.73
2018-12-11T01:51:00.090Z,406.70
2018-12-11T01:53:28.013Z,1884.80
2018-12-11T01:55:55.923Z,1887.77
2018-12-11T01:58:23.850Z,1999.90
2018-12-11T02:00:51.752Z,1571.47
2018-12-11T02:03:20.065Z,521.23
2018-12-11T02:05:48.014Z,315.63
2018-12-11T02:08:15.907Z,351.90
2018-12-11T02:10:43.813Z,244.37
2018-12-11T02:13:11.756Z,842.23
2018-12-11T02:15:39.666Z,1391.47
2018-12-11T02:18:07.576Z,1999.90
2018-12-11T02:20:35.483Z,1999.90
2018-12-11T02:23:03.380Z,1999.90
2018-12-11T02:25:31.320Z,1999.90
2018-12-11T02:27:59.215Z,1018.50
2018-12-11T02:30:27.123Z,146.03
2018-12-11T02:32:55.173Z,1301.83
2018-12-11T02:35:23.218Z,1999.90
2018-12-11T02:37:51.121Z,867.33
2018-12-11T02:40:19.032Z,372.63
2018-12-11T02:42:46.972Z,1073.97
2018-12-11T02:45:14.830Z,1999.90
2018-12-11T02:47:42.789Z,739.43
2018-12-11T02:50:10.709Z,1999.90
2018-12-11T02:52:38.579Z,1707.40
2018-12-11T02:55:06.472Z,1182.53
2018-12-11T02:57:34.389Z,447.60
2018-12-11T03:00:02.357Z,316.60
2018-12-11T03:02:30.271Z,1999.90
2018-12-11T03:04:58.185Z,1999.90
2018-12-11T03:07:26.124Z,929.10
2018-12-11T03:09:53.989Z,1999.90
2018-12-11T03:12:21.942Z,1997.20
2018-12-11T03:14:49.856Z,1999.90
2018-12-11T03:17:17.765Z,1433.33
2018-12-11T03:19:45.668Z,659.40
2018-12-11T03:22:13.540Z,1268.93
2018-12-11T03:24:41.501Z,1987.73
2018-12-11T03:27:09.416Z,1999.90
2018-12-11T03:29:37.326Z,1317.83
2018-12-11T03:32:05.236Z,1999.90
2018-12-11T03:34:33.174Z,1999.90
2018-12-11T03:37:01.112Z,1999.90
2018-12-11T03:39:29.037Z,1913.53
2018-12-11T03:41:56.955Z,1999.90
2018-12-11T03:44:24.900Z,1999.90
2018-12-11T03:46:52.821Z,1999.90
2018-12-11T03:49:20.745Z,689.63
2018-12-11T03:51:48.697Z,1960.60
2018-12-11T03:54:16.621Z,1776.67
2018-12-11T03:56:44.581Z,1999.90
2018-12-11T03:59:12.541Z,1999.90
2018-12-11T04:01:40.462Z,1999.90
2018-12-11T04:04:08.368Z,1999.90
2018-12-11T04:06:36.329Z,1999.90
2018-12-11T04:09:05.816Z,1999.90
2018-12-11T04:11:33.702Z,1999.90
2018-12-11T04:14:01.634Z,1979.50
2018-12-11T04:16:29.572Z,1870.30
2018-12-11T04:18:57.447Z,1179.17
2018-12-11T04:21:25.318Z,1532.17
2018-12-11T04:23:53.241Z,1999.90
2018-12-11T04:26:21.153Z,1617.47
2018-12-11T04:28:49.082Z,1999.90
2018-12-11T04:31:17.002Z,1999.90
2018-12-11T04:33:44.958Z,1999.90
2018-12-11T04:36:12.897Z,1999.90
2018-12-11T04:38:40.833Z,1192.57
2018-12-11T04:41:08.772Z,1999.90
2018-12-11T04:43:36.721Z,1999.90
2018-12-11T04:46:04.644Z,1999.90
2018-12-11T04:48:32.593Z,1999.90
2018-12-11T04:51:00.513Z,1999.90
2018-12-11T04:53:28.451Z,1999.90
2018-12-11T04:55:56.421Z,1999.90
2018-12-11T04:58:24.404Z,1999.90
2018-12-11T05:00:52.389Z,1999.90
2018-12-11T05:03:20.304Z,1999.90
2018-12-11T05:05:48.272Z,1999.90
2018-12-11T05:08:17.248Z,1999.90
2018-12-11T05:10:45.189Z,1999.90
2018-12-11T05:13:13.148Z,1999.90
2018-12-11T05:15:41.079Z,1999.90
2018-12-11T05:18:09.014Z,1875.13
2018-12-11T05:20:36.953Z,1999.90
2018-12-11T05:23:04.902Z,1214.30
2018-12-11T05:25:32.823Z,1999.90
2018-12-11T05:28:00.787Z,1999.90
2018-12-11T05:30:28.709Z,1848.80
2018-12-11T05:32:56.592Z,1999.90
2018-12-11T05:35:24.467Z,1999.27
2018-12-11T05:37:52.405Z,1295.57
2018-12-11T05:40:20.364Z,1999.90
2018-12-11T05:42:48.277Z,1344.23
2018-12-11T05:45:16.206Z,1702.43
2018-12-11T05:47:44.209Z,1999.90
2018-12-11T05:50:12.172Z,1799.80
2018-12-11T05:52:40.036Z,1690.57
2018-12-11T05:55:07.993Z,988.10
2018-12-11T05:57:35.913Z,1999.90
2018-12-11T06:00:04.500Z,1603.93
2018-12-11T06:02:32.412Z,1999.90
2018-12-11T06:05:00.417Z,1999.90
2018-12-11T06:07:28.345Z,1999.90
2018-12-11T06:09:56.297Z,1999.90
2018-12-11T06:12:24.219Z,1676.20
2018-12-11T06:14:52.089Z,1999.90
2018-12-11T06:17:20.024Z,1999.90
2018-12-11T06:19:47.950Z,1999.90
2018-12-11T06:22:15.884Z,1999.90
2018-12-11T06:24:43.801Z,1999.90
2018-12-11T06:27:11.755Z,914.00
2018-12-11T06:29:40.565Z,1909.23
2018-12-11T06:32:08.918Z,1999.90
2018-12-11T06:34:37.084Z,1307.93
2018-12-11T06:37:05.180Z,1999.90
2018-12-11T06:39:33.400Z,1999.90
2018-12-11T06:42:02.004Z,1999.90
2018-12-11T06:44:30.561Z,1275.33
2018-12-11T06:46:58.664Z,1999.90
2018-12-11T06:49:26.758Z,1999.90
2018-12-11T06:51:54.801Z,179.40
2018-12-11T06:54:22.978Z,1196.10
2018-12-11T06:56:51.191Z,749.13
2018-12-11T06:59:19.165Z,1999.90
2018-12-11T07:01:47.084Z,1999.90
2018-12-11T07:04:14.973Z,1999.90
2018-12-11T07:06:42.953Z,1999.90
2018-12-11T07:09:10.887Z,1999.90
2018-12-11T07:11:38.819Z,1714.20
2018-12-11T07:14:06.723Z,1245.83
2018-12-11T07:16:34.627Z,1999.90
2018-12-11T07:19:02.551Z,1999.90
2018-12-11T07:21:31.185Z,1056.90
2018-12-11T07:23:59.090Z,1412.97
2018-12-11T07:26:27.013Z,1759.97
2018-12-11T07:28:54.924Z,1611.43
2018-12-11T07:31:22.850Z,1962.40
2018-12-11T07:33:51.116Z,928.40
2018-12-11T07:36:19.192Z,1999.90
2018-12-11T07:38:47.095Z,1999.90
2018-12-11T07:41:15.063Z,1897.70
2018-12-11T07:43:42.972Z,1533.13
2018-12-11T07:46:10.893Z,1017.10
2018-12-11T07:48:38.828Z,1999.90
2018-12-11T07:51:06.702Z,1999.90
2018-12-11T07:53:34.638Z,1464.80
2018-12-11T07:56:02.576Z,630.93
2018-12-11T07:58:30.483Z,1190.07
2018-12-11T08:00:58.431Z,1869.57
2018-12-11T08:03:26.340Z,884.70
2018-12-11T08:05:54.369Z,611.63
2018-12-11T08:08:22.317Z,1497.87
2018-12-11T08:10:50.241Z,1999.90
2018-12-11T08:13:18.168Z,1439.53
2018-12-11T08:15:46.093Z,127.10
2018-12-11T08:18:14.028Z,1999.90
2018-12-11T08:20:42.045Z,1263.00
2018-12-11T08:23:09.955Z,1811.77
2018-12-11T08:25:37.885Z,1999.90
2018-12-11T08:28:05.763Z,348.40
2018-12-11T08:30:33.698Z,864.53
2018-12-11T08:33:01.625Z,239.13
2018-12-11T08:35:29.530Z,334.37
2018-12-11T08:37:57.493Z,215.67
2018-12-11T08:40:25.399Z,1344.73
2018-12-11T08:42:53.330Z,742.33
2018-12-11T08:45:21.242Z,1670.33
2018-12-11T08:47:49.160Z,216.20
2018-12-11T08:50:17.089Z,1570.60
2018-12-11T08:52:45.037Z,884.17
2018-12-11T08:55:12.949Z,1551.73
2018-12-11T08:57:40.924Z,175.47
2018-12-11T09:00:08.996Z,501.97
2018-12-11T09:02:37.010Z,308.03
2018-12-11T09:05:04.925Z,208.70
2018-12-11T09:07:32.858Z,1999.90
2018-12-11T09:10:00.725Z,1999.90
2018-12-11T09:12:28.638Z,1999.90
2018-12-11T09:14:56.643Z,375.10
2018-12-11T09:17:24.597Z,799.17
2018-12-11T09:19:52.470Z,211.60
2018-12-11T09:22:20.413Z,1535.07
2018-12-11T09:24:48.333Z,1139.60
2018-12-11T09:27:16.239Z,816.77
2018-12-11T09:29:44.200Z,1935.77
2018-12-11T09:32:12.111Z,717.50
2018-12-11T09:34:40.040Z,1135.77
2018-12-11T09:37:07.945Z,772.23
2018-12-11T09:39:35.881Z,116.03
2018-12-11T09:42:07.031Z,110.00
2018-12-11T09:44:33.722Z,448.27
2018-12-11T09:47:01.651Z,881.83
2018-12-11T09:49:30.005Z,141.37
2018-12-11T09:51:58.110Z,354.40
2018-12-11T09:54:26.042Z,136.53
2018-12-11T09:56:53.961Z,187.73
2018-12-11T09:59:23.508Z,1380.50
2018-12-11T10:01:51.729Z,188.47
2018-12-11T10:04:19.613Z,199.87
2018-12-11T10:06:47.544Z,287.70
2018-12-11T10:09:15.542Z,611.80
2018-12-11T10:11:43.444Z,242.80
2018-12-11T10:14:11.353Z,409.80
2018-12-11T10:16:39.286Z,149.33
2018-12-11T10:19:07.194Z,696.67
2018-12-11T10:21:35.127Z,314.10
2018-12-11T10:24:03.023Z,399.87
2018-12-11T10:26:30.956Z,224.37
2018-12-11T10:28:58.990Z,290.33
2018-12-11T10:31:26.909Z,165.43
2018-12-11T10:33:54.803Z,267.50
2018-12-11T10:36:22.757Z,611.83
2018-12-11T10:38:50.661Z,341.80
2018-12-11T10:41:18.567Z,136.60
2018-12-11T10:43:46.473Z,136.30
2018-12-11T10:46:14.439Z,161.97
2018-12-11T10:48:42.345Z,289.27
2018-12-11T10:51:10.513Z,169.87
2018-12-11T10:53:38.439Z,92.30
2018-12-11T10:56:06.353Z,170.27
2018-12-11T10:58:34.257Z,202.43
2018-12-11T11:01:07.805Z,131.60
2018-12-11T11:03:35.679Z,299.07
2018-12-11T11:06:03.624Z,692.23
2018-12-11T11:08:31.567Z,167.10
2018-12-11T11:10:59.489Z,212.30
2018-12-11T11:13:27.442Z,1643.23
2018-12-11T11:15:55.362Z,144.07
2018-12-11T11:18:23.269Z,198.53
2018-12-11T11:20:51.226Z,217.80
2018-12-11T11:23:19.132Z,358.23
2018-12-11T11:25:47.036Z,144.03
2018-12-11T11:28:14.952Z,174.13
2018-12-11T11:30:43.116Z,101.70
2018-12-11T11:33:11.037Z,126.50
2018-12-11T11:35:39.010Z,566.83
2018-12-11T11:38:06.964Z,239.83
2018-12-11T11:40:34.820Z,145.37
2018-12-11T11:43:02.737Z,113.13
2018-12-11T11:45:30.750Z,1467.87
2018-12-11T11:47:58.764Z,657.53
2018-12-11T11:50:26.733Z,674.30
2018-12-11T11:52:54.649Z,911.47
2018-12-11T11:55:22.636Z,895.53
2018-12-11T11:57:50.548Z,124.30
2018-12-11T12:00:18.519Z,287.13
2018-12-11T12:02:46.452Z,208.63
2018-12-11T12:05:14.359Z,429.10
2018-12-11T12:07:42.281Z,132.07
2018-12-11T12:10:10.620Z,474.37
2018-12-11T12:12:38.563Z,314.33
2018-12-11T12:15:07.231Z,165.50
2018-12-11T12:17:36.318Z,177.70
2018-12-11T12:20:06.330Z,204.17
2018-12-11T12:22:34.300Z,645.60
2018-12-11T12:25:02.218Z,1724.37
2018-12-11T12:27:30.149Z,784.93
2018-12-11T12:29:58.049Z,177.73
2018-12-11T12:32:26.550Z,395.87
2018-12-11T12:34:55.088Z,437.30
2018-12-11T12:37:23.453Z,100.23
2018-12-11T12:39:51.915Z,853.83
2018-12-11T12:42:20.431Z,675.73
2018-12-11T12:44:49.096Z,540.00
2018-12-11T12:47:17.402Z,979.83
2018-12-11T12:49:50.620Z,911.07
2018-12-11T12:52:15.930Z,422.53
2018-12-11T12:54:44.161Z,1252.17
2018-12-11T12:57:12.101Z,242.17
2018-12-11T12:59:40.043Z,1814.37
2018-12-11T13:02:07.947Z,928.27
2018-12-11T13:04:35.889Z,1778.93
2018-12-11T13:07:03.795Z,1602.53
2018-12-11T13:09:31.705Z,1999.90
2018-12-11T13:12:00.171Z,1999.90
2018-12-11T13:14:28.425Z,1999.90
2018-12-11T13:16:58.276Z,1982.60
2018-12-11T13:19:26.582Z,1999.90
2018-12-11T13:21:55.098Z,1999.90
2018-12-11T13:24:23.990Z,1088.40
2018-12-11T13:26:52.606Z,1709.73
2018-12-11T13:29:20.915Z,1999.90
2018-12-11T13:31:49.041Z,442.73
2018-12-11T13:34:17.425Z,686.47
2018-12-11T13:36:46.639Z,1999.90
2018-12-11T13:39:15.218Z,233.73
2018-12-11T13:41:43.800Z,1323.57
2018-12-11T13:44:12.206Z,787.07
2018-12-11T13:46:40.683Z,1008.10
2018-12-11T13:49:09.137Z,677.00
2018-12-11T13:51:37.601Z,646.83
2018-12-11T13:54:05.859Z,606.57
2018-12-11T13:56:33.932Z,818.87
2018-12-11T13:59:04.630Z,709.13
2018-12-11T14:01:32.675Z,850.73
2018-12-11T14:04:00.893Z,1481.00
2018-12-11T14:06:29.608Z,1331.47
2018-12-11T14:08:59.889Z,1437.13
2018-12-11T14:11:28.549Z,1530.33
2018-12-11T14:13:57.197Z,1686.53
2018-12-11T14:16:25.663Z,1877.20
2018-12-11T14:18:53.631Z,1561.67
2018-12-11T14:21:23.810Z,1427.80
2018-12-11T14:23:52.144Z,1611.80
2018-12-11T14:26:21.056Z,1209.90
2018-12-11T14:28:49.661Z,1813.40
2018-12-11T14:31:18.128Z,1806.07
2018-12-11T14:33:46.554Z,1998.90
2018-12-11T14:36:14.730Z,1696.50
2018-12-11T14:38:42.993Z,1617.03
2018-12-11T14:41:11.425Z,1999.90
2018-12-11T14:43:39.940Z,1999.90
2018-12-11T14:46:08.569Z,1999.90
2018-12-11T14:48:36.638Z,1295.43
2018-12-11T14:51:04.729Z,1999.90
2018-12-11T14:53:33.292Z,1656.07
2018-12-11T14:56:01.782Z,1695.67
2018-12-11T14:58:30.370Z,1999.90
2018-12-11T15:00:58.990Z,1999.90
2018-12-11T15:03:27.089Z,1750.53
2018-12-11T15:05:55.286Z,1719.47
2018-12-11T15:08:23.907Z,1999.90
2018-12-11T15:10:52.170Z,1952.70
2018-12-11T15:13:20.350Z,1999.90
2018-12-11T15:15:48.352Z,1999.90
2018-12-11T15:18:16.641Z,1999.90
2018-12-11T15:20:45.273Z,1999.90
2018-12-11T15:23:13.862Z,1687.30
2018-12-11T15:25:42.500Z,1961.37
2018-12-11T15:28:11.128Z,1989.90
2018-12-11T15:30:39.141Z,1999.90
2018-12-11T15:33:07.459Z,1999.90
2018-12-11T15:35:36.092Z,1999.90
2018-12-11T15:38:05.526Z,1982.10
2018-12-11T15:40:34.266Z,1476.53
2018-12-11T15:43:02.858Z,1999.90
2018-12-11T15:45:31.574Z,1999.90
2018-12-11T15:48:06.239Z,1999.90
2018-12-11T15:50:34.797Z,1999.90
2018-12-11T15:53:03.234Z,1999.90
2018-12-11T15:55:31.815Z,1999.90
2018-12-11T15:58:00.692Z,1918.90
2018-12-11T16:00:29.882Z,1999.90
2018-12-11T16:02:58.592Z,1576.87
2018-12-11T16:05:27.364Z,1999.90
2018-12-11T16:07:55.971Z,1999.90
2018-12-11T16:10:24.568Z,1888.90
2018-12-11T16:12:53.126Z,1999.90
2018-12-11T16:15:21.754Z,1999.90
2018-12-11T16:17:50.423Z,1999.90
2018-12-11T16:20:19.045Z,1653.87
2018-12-11T16:22:48.708Z,1734.23
2018-12-11T16:25:17.657Z,1999.90
2018-12-11T16:27:46.530Z,1986.10
2018-12-11T16:30:16.487Z,1999.90
2018-12-11T16:32:44.805Z,1999.90
2018-12-11T16:35:13.301Z,1999.90
2018-12-11T16:37:42.065Z,1999.90
2018-12-11T16:40:10.825Z,1999.90
2018-12-11T16:42:38.837Z,1999.90
2018-12-11T16:45:07.225Z,1999.90
2018-12-11T16:47:35.399Z,1999.90
2018-12-11T16:50:04.037Z,1999.90
2018-12-11T16:52:32.940Z,1999.90
2018-12-11T16:55:01.370Z,1999.90
2018-12-11T16:57:29.651Z,1901.00
2018-12-11T16:59:57.738Z,1999.90
2018-12-11T17:02:25.849Z,1984.73
2018-12-11T17:04:54.205Z,1999.90
2018-12-11T17:07:24.269Z,1999.90
2018-12-11T17:09:52.681Z,1999.90
2018-12-11T17:12:20.880Z,1374.03
2018-12-11T17:14:48.851Z,1522.30
2018-12-11T17:17:17.071Z,1464.43
2018-12-11T17:19:45.482Z,1619.07
2018-12-11T17:22:13.701Z,834.23
2018-12-11T17:24:41.879Z,1309.03
2018-12-11T17:27:09.926Z,1999.90
2018-12-11T17:29:38.044Z,1450.97
2018-12-11T17:32:06.390Z,785.63
2018-12-11T17:34:34.927Z,1890.73
2018-12-11T17:37:03.086Z,1450.90
2018-12-11T17:39:31.155Z,178.53
2018-12-11T17:41:59.101Z,1905.40
2018-12-11T17:44:30.436Z,1663.33
2018-12-11T17:46:58.634Z,831.97
2018-12-11T17:49:26.946Z,1282.30
2018-12-11T17:51:55.115Z,1999.90
2018-12-11T17:54:23.125Z,388.27
2018-12-11T17:56:51.207Z,151.37
2018-12-11T17:59:19.450Z,1220.93
2018-12-11T18:01:50.863Z,1999.90
2018-12-11T18:04:19.142Z,266.97
2018-12-11T18:06:47.654Z,214.93
2018-12-11T18:09:15.839Z,827.43
2018-12-11T18:11:43.766Z,354.50
2018-12-11T18:14:11.872Z,444.67
2018-12-11T18:16:40.267Z,498.90
2018-12-11T18:19:08.762Z,147.53
2018-12-11T18:21:36.952Z,290.17
2018-12-11T18:24:05.585Z,595.13
2018-12-11T18:26:33.749Z,203.50
2018-12-11T18:29:01.699Z,116.20
2018-12-11T18:31:30.743Z,248.27
2018-12-11T18:33:59.421Z,152.10
2018-12-11T18:36:27.784Z,111.30
2018-12-11T18:38:56.832Z,164.40
2018-12-11T18:41:25.521Z,298.80
2018-12-11T18:43:53.874Z,183.07
2018-12-11T18:46:22.943Z,504.83
2018-12-11T18:48:52.289Z,165.23
2018-12-11T18:51:21.192Z,162.17
2018-12-11T18:53:49.797Z,158.93
2018-12-11T18:56:18.388Z,148.53
2018-12-11T18:58:47.161Z,215.60
2018-12-11T19:01:15.744Z,268.83
2018-12-11T19:03:49.230Z,100.40
2018-12-11T19:06:14.112Z,117.93
2018-12-11T19:08:42.518Z,87.73
2018-12-11T19:11:11.874Z,132.10
2018-12-11T19:13:40.441Z,132.23
2018-12-11T19:16:09.267Z,157.67
2018-12-11T19:18:37.985Z,272.97
2018-12-11T19:21:06.218Z,115.17
2018-12-11T19:24:41.238Z,107.90
2018-12-11T19:27:09.475Z,152.73
2018-12-11T19:29:37.755Z,189.13
2018-12-11T19:32:06.462Z,328.07
2018-12-11T19:34:34.961Z,165.90
2018-12-11T19:37:04.529Z,162.30
2018-12-11T19:39:33.538Z,216.37
2018-12-11T19:42:02.200Z,99.07
2018-12-11T19:44:31.025Z,128.63
2018-12-11T19:46:59.578Z,119.17
2018-12-11T19:49:29.075Z,165.10
2018-12-11T19:51:57.398Z,91.30
2018-12-11T19:54:26.082Z,143.93
2018-12-11T19:56:54.647Z,1016.77
2018-12-11T19:59:23.038Z,453.57
2018-12-11T20:01:51.483Z,158.87
2018-12-11T20:04:20.164Z,426.50
2018-12-11T20:06:48.522Z,1103.83
2018-12-11T20:09:18.221Z,125.60
2018-12-11T20:11:46.467Z,750.53
2018-12-11T20:14:14.959Z,433.43
2018-12-11T20:16:43.085Z,330.57
2018-12-11T20:19:11.800Z,456.33
2018-12-11T20:21:40.182Z,938.60
2018-12-11T20:24:08.583Z,444.80
2018-12-11T20:26:39.573Z,241.60
2018-12-11T20:29:08.797Z,243.40
2018-12-11T20:31:42.237Z,614.20
2018-12-11T20:34:10.680Z,182.13
2018-12-11T20:36:39.201Z,1107.00
2018-12-11T20:39:07.807Z,285.73
2018-12-11T20:41:35.901Z,322.30
2018-12-11T20:44:04.048Z,228.20
2018-12-11T20:46:33.392Z,1266.70
2018-12-11T20:49:01.460Z,666.07
2018-12-11T20:51:29.773Z,807.27
2018-12-11T20:53:57.694Z,1027.87
2018-12-11T20:56:25.726Z,293.90
2018-12-11T20:58:53.653Z,122.60
2018-12-11T21:01:21.963Z,738.43
2018-12-11T21:03:49.933Z,189.63
2018-12-11T21:06:18.171Z,236.50
2018-12-11T21:08:46.129Z,147.57
2018-12-11T21:11:14.014Z,890.20
2018-12-11T21:13:41.913Z,512.67
2018-12-11T21:16:11.097Z,651.30
2018-12-11T21:18:39.158Z,389.60
2018-12-11T21:21:07.493Z,366.10
2018-12-11T21:23:35.488Z,443.00
2018-12-11T21:26:03.516Z,330.57
2018-12-11T21:28:31.412Z,943.63
2018-12-11T21:30:59.336Z,394.77
2018-12-11T21:33:27.376Z,475.17
2018-12-11T21:35:55.440Z,1363.30
2018-12-11T21:38:23.334Z,1043.60
2018-12-11T21:40:51.328Z,376.07
2018-12-11T21:43:19.319Z,425.80
2018-12-11T21:45:47.264Z,375.57
2018-12-11T21:48:15.203Z,1588.53
2018-12-11T21:50:43.136Z,1407.90
2018-12-11T21:53:11.026Z,631.37
2018-12-11T21:55:38.964Z,820.80
2018-12-11T21:58:06.825Z,809.87
2018-12-11T22:00:34.729Z,1173.43
2018-12-11T22:03:02.737Z,1999.90
2018-12-11T22:05:30.846Z,1315.47
2018-12-11T22:08:02.488Z,835.33
2018-12-11T22:10:31.599Z,472.03
2018-12-11T22:12:59.592Z,1261.50
2018-12-11T22:15:27.614Z,1298.10
2018-12-11T22:17:55.681Z,774.30
2018-12-11T22:20:23.600Z,945.17
2018-12-11T22:22:51.569Z,1151.07
2018-12-11T22:25:19.465Z,863.30
2018-12-11T22:27:47.393Z,918.20
2018-12-11T22:30:15.293Z,1669.60
2018-12-11T22:32:43.193Z,1786.90
2018-12-11T22:35:11.210Z,274.73
2018-12-11T22:37:39.089Z,683.37
2018-12-11T22:40:06.989Z,1877.20
2018-12-11T22:42:34.888Z,1579.97
2018-12-11T22:45:02.820Z,1475.80
2018-12-11T22:47:30.713Z,836.47
2018-12-11T22:49:58.609Z,1424.63
2018-12-11T22:52:26.541Z,1951.97
2018-12-11T22:54:54.429Z,773.17
2018-12-11T22:57:22.330Z,917.07
2018-12-11T22:59:50.230Z,1101.30
2018-12-11T23:02:18.147Z,1999.90
2018-12-11T23:04:46.057Z,1045.10
2018-12-11T23:07:13.971Z,1999.90
2018-12-11T23:09:44.731Z,881.67
2018-12-11T23:12:12.714Z,1765.40
2018-12-11T23:14:40.648Z,604.00
2018-12-11T23:17:08.569Z,1570.47
2018-12-11T23:19:36.472Z,1999.90
2018-12-11T23:22:04.372Z,1578.60
2018-12-11T23:24:32.357Z,1312.07
2018-12-11T23:27:00.289Z,1874.07
2018-12-11T23:29:28.185Z,1404.07
2018-12-11T23:31:56.097Z,1499.80
2018-12-11T23:34:23.993Z,1999.90
2018-12-11T23:36:51.909Z,1994.83
2018-12-11T23:39:19.909Z,1783.83
2018-12-11T23:41:47.876Z,1999.90
2018-12-11T23:44:15.777Z,1999.90
2018-12-11T23:46:43.676Z,1999.90
2018-12-11T23:49:11.568Z,1987.97
2018-12-11T23:51:39.489Z,1999.90
2018-12-11T23:54:07.424Z,1999.90
2018-12-11T23:56:35.344Z,1999.90
2018-12-11T23:59:03.262Z,1342.23
